Terminal Aerodrome Forecast
Issued by NWS

Home | Current Version | Previous Version | Graphics & Text | Print | Product List | Glossary On
Versions: 1 2 3 4 5 6 7 8 9 10 11 12 13 14 15 16 17 18 19 20 21 22 23 24 25 26 27 28 29 30 31 32 33 34 35 36 37
000
FTUS43 KLOT 010304 AAA
TAFORD
TAF AMD
KORD 010304Z 0103/0206 VRB04KT P6SM SKC
     FM011200 06005KT P6SM FEW100
     FM011700 13010G17KT P6SM FEW250
     FM012000 17014G20KT P6SM FEW250=

USA.gov is the U.S. government's official web portal to all federal, state and local government web resources and services.